sensor_id;sensor_type;location;lat;lon;timestamp;P1;durP1;ratioP1;P2;durP2;ratioP2
49139;SDS011;34959;49.310;8.646;2022-11-20T00:00:50;1.23;;;0.75;;
49139;SDS011;34959;49.310;8.646;2022-11-20T00:03:15;2.08;;;0.60;;
49139;SDS011;34959;49.310;8.646;2022-11-20T00:05:42;2.13;;;0.50;;
49139;SDS011;34959;49.310;8.646;2022-11-20T00:08:08;1.13;;;0.50;;
49139;SDS011;34959;49.310;8.646;2022-11-20T00:10:35;1.10;;;0.50;;
49139;SDS011;34959;49.310;8.646;2022-11-20T00:13:01;2.00;;;0.70;;
49139;SDS011;34959;49.310;8.646;2022-11-20T00:15:26;0.68;;;0.50;;
49139;SDS011;34959;49.310;8.646;2022-11-20T00:17:52;1.58;;;0.60;;
49139;SDS011;34959;49.310;8.646;2022-11-20T00:20:17;1.63;;;0.60;;
49139;SDS011;34959;49.310;8.646;2022-11-20T00:22:43;2.33;;;0.75;;
49139;SDS011;34959;49.310;8.646;2022-11-20T00:25:08;2.63;;;1.00;;
49139;SDS011;34959;49.310;8.646;2022-11-20T00:27:33;2.83;;;1.05;;
49139;SDS011;34959;49.310;8.646;2022-11-20T00:29:59;2.70;;;1.10;;
49139;SDS011;34959;49.310;8.646;2022-11-20T00:32:24;4.22;;;1.00;;
49139;SDS011;34959;49.310;8.646;2022-11-20T00:34:50;7.68;;;1.10;;
49139;SDS011;34959;49.310;8.646;2022-11-20T00:37:15;1.38;;;0.60;;
49139;SDS011;34959;49.310;8.646;2022-11-20T00:39:40;2.20;;;0.90;;
49139;SDS011;34959;49.310;8.646;2022-11-20T00:42:06;19.73;;;1.67;;
49139;SDS011;34959;49.310;8.646;2022-11-20T00:44:31;11.32;;;1.58;;
49139;SDS011;34959;49.310;8.646;2022-11-20T00:46:56;2.70;;;1.02;;
49139;SDS011;34959;49.310;8.646;2022-11-20T00:49:22;6.63;;;1.13;;
49139;SDS011;34959;49.310;8.646;2022-11-20T00:51:47;1.98;;;0.90;;
49139;SDS011;34959;49.310;8.646;2022-11-20T00:54:13;1.60;;;0.73;;
49139;SDS011;34959;49.310;8.646;2022-11-20T00:56:38;1.77;;;1.00;;
49139;SDS011;34959;49.310;8.646;2022-11-20T00:59:03;2.47;;;0.90;;
49139;SDS011;34959;49.310;8.646;2022-11-20T01:01:29;2.50;;;1.00;;
49139;SDS011;34959;49.310;8.646;2022-11-20T01:03:55;3.17;;;1.10;;
49139;SDS011;34959;49.310;8.646;2022-11-20T01:06:26;1.90;;;0.85;;
49139;SDS011;34959;49.310;8.646;2022-11-20T01:08:54;2.20;;;1.08;;
49139;SDS011;34959;49.310;8.646;2022-11-20T01:11:22;2.30;;;0.73;;
49139;SDS011;34959;49.310;8.646;2022-11-20T01:13:49;1.42;;;0.85;;
49139;SDS011;34959;49.310;8.646;2022-11-20T01:18:43;5.35;;;1.20;;
49139;SDS011;34959;49.310;8.646;2022-11-20T01:21:20;2.10;;;0.63;;
49139;SDS011;34959;49.310;8.646;2022-11-20T01:23:47;5.03;;;0.80;;
49139;SDS011;34959;49.310;8.646;2022-11-20T01:26:14;1.17;;;0.75;;
49139;SDS011;34959;49.310;8.646;2022-11-20T01:28:41;1.58;;;0.82;;
49139;SDS011;34959;49.310;8.646;2022-11-20T01:31:14;1.85;;;0.80;;
49139;SDS011;34959;49.310;8.646;2022-11-20T01:33:44;1.48;;;0.80;;
49139;SDS011;34959;49.310;8.646;2022-11-20T01:36:10;1.13;;;0.80;;
49139;SDS011;34959;49.310;8.646;2022-11-20T01:38:36;1.80;;;0.70;;
49139;SDS011;34959;49.310;8.646;2022-11-20T01:41:02;2.13;;;0.85;;
49139;SDS011;34959;49.310;8.646;2022-11-20T01:43:27;1.55;;;0.70;;
49139;SDS011;34959;49.310;8.646;2022-11-20T01:48:44;1.67;;;0.70;;
49139;SDS011;34959;49.310;8.646;2022-11-20T01:51:21;1.73;;;0.88;;
49139;SDS011;34959;49.310;8.646;2022-11-20T01:53:48;1.00;;;0.60;;
49139;SDS011;34959;49.310;8.646;2022-11-20T01:56:14;1.10;;;0.77;;
49139;SDS011;34959;49.310;8.646;2022-11-20T01:58:42;1.48;;;0.75;;
49139;SDS011;34959;49.310;8.646;2022-11-20T02:01:10;1.55;;;0.77;;
49139;SDS011;34959;49.310;8.646;2022-11-20T02:03:36;1.55;;;0.90;;
49139;SDS011;34959;49.310;8.646;2022-11-20T02:06:07;2.10;;;0.80;;
49139;SDS011;34959;49.310;8.646;2022-11-20T02:08:37;1.60;;;0.60;;
49139;SDS011;34959;49.310;8.646;2022-11-20T02:11:02;2.05;;;0.70;;
49139;SDS011;34959;49.310;8.646;2022-11-20T02:13:28;5.35;;;1.15;;
49139;SDS011;34959;49.310;8.646;2022-11-20T02:16:15;3.78;;;1.05;;
49139;SDS011;34959;49.310;8.646;2022-11-20T02:24:04;4.47;;;1.10;;
49139;SDS011;34959;49.310;8.646;2022-11-20T02:26:33;1.65;;;0.73;;
49139;SDS011;34959;49.310;8.646;2022-11-20T02:29:02;1.60;;;0.70;;
49139;SDS011;34959;49.310;8.646;2022-11-20T02:31:29;1.85;;;0.95;;
49139;SDS011;34959;49.310;8.646;2022-11-20T02:33:56;1.13;;;0.73;;
49139;SDS011;34959;49.310;8.646;2022-11-20T02:36:22;2.30;;;0.70;;
49139;SDS011;34959;49.310;8.646;2022-11-20T02:38:49;2.40;;;0.90;;
49139;SDS011;34959;49.310;8.646;2022-11-20T02:41:15;1.35;;;0.68;;
49139;SDS011;34959;49.310;8.646;2022-11-20T02:43:40;1.85;;;0.85;;
49139;SDS011;34959;49.310;8.646;2022-11-20T02:46:06;1.35;;;0.88;;
49139;SDS011;34959;49.310;8.646;2022-11-20T02:48:32;3.08;;;0.70;;
49139;SDS011;34959;49.310;8.646;2022-11-20T02:50:57;1.92;;;0.80;;
49139;SDS011;34959;49.310;8.646;2022-11-20T02:53:23;1.30;;;0.85;;
49139;SDS011;34959;49.310;8.646;2022-11-20T02:55:48;1.75;;;0.80;;
49139;SDS011;34959;49.310;8.646;2022-11-20T02:58:14;1.23;;;0.85;;
49139;SDS011;34959;49.310;8.646;2022-11-20T03:00:39;1.23;;;0.70;;
49139;SDS011;34959;49.310;8.646;2022-11-20T03:03:04;0.85;;;0.70;;
49139;SDS011;34959;49.310;8.646;2022-11-20T03:05:30;1.63;;;0.70;;
49139;SDS011;34959;49.310;8.646;2022-11-20T03:07:55;1.80;;;1.00;;
49139;SDS011;34959;49.310;8.646;2022-11-20T03:10:20;1.20;;;0.80;;
49139;SDS011;34959;49.310;8.646;2022-11-20T03:12:46;0.65;;;0.65;;
49139;SDS011;34959;49.310;8.646;2022-11-20T03:15:11;2.47;;;0.73;;
49139;SDS011;34959;49.310;8.646;2022-11-20T03:17:37;1.83;;;0.70;;
49139;SDS011;34959;49.310;8.646;2022-11-20T03:20:02;3.03;;;0.93;;
49139;SDS011;34959;49.310;8.646;2022-11-20T03:22:29;1.20;;;0.90;;
49139;SDS011;34959;49.310;8.646;2022-11-20T03:24:55;1.02;;;0.80;;
49139;SDS011;34959;49.310;8.646;2022-11-20T03:27:20;1.88;;;0.90;;
49139;SDS011;34959;49.310;8.646;2022-11-20T03:29:45;1.05;;;0.73;;
49139;SDS011;34959;49.310;8.646;2022-11-20T03:32:11;1.38;;;1.00;;
49139;SDS011;34959;49.310;8.646;2022-11-20T03:34:36;3.80;;;1.13;;
49139;SDS011;34959;49.310;8.646;2022-11-20T03:37:01;1.50;;;0.70;;
49139;SDS011;34959;49.310;8.646;2022-11-20T03:39:27;2.40;;;0.85;;
49139;SDS011;34959;49.310;8.646;2022-11-20T03:41:52;2.80;;;0.90;;
49139;SDS011;34959;49.310;8.646;2022-11-20T03:44:18;1.85;;;1.02;;
49139;SDS011;34959;49.310;8.646;2022-11-20T03:46:46;2.55;;;0.80;;
49139;SDS011;34959;49.310;8.646;2022-11-20T03:49:11;1.50;;;1.00;;
49139;SDS011;34959;49.310;8.646;2022-11-20T03:51:36;1.15;;;0.90;;
49139;SDS011;34959;49.310;8.646;2022-11-20T03:54:06;1.20;;;0.80;;
49139;SDS011;34959;49.310;8.646;2022-11-20T03:56:33;1.00;;;0.70;;
49139;SDS011;34959;49.310;8.646;2022-11-20T03:59:02;1.48;;;0.80;;
49139;SDS011;34959;49.310;8.646;2022-11-20T04:01:35;1.20;;;0.80;;
49139;SDS011;34959;49.310;8.646;2022-11-20T04:04:02;1.20;;;0.70;;
49139;SDS011;34959;49.310;8.646;2022-11-20T04:06:29;3.30;;;0.90;;
49139;SDS011;34959;49.310;8.646;2022-11-20T04:08:56;2.05;;;1.30;;
49139;SDS011;34959;49.310;8.646;2022-11-20T04:11:23;1.55;;;0.90;;
49139;SDS011;34959;49.310;8.646;2022-11-20T04:13:55;1.60;;;0.85;;
49139;SDS011;34959;49.310;8.646;2022-11-20T04:16:22;3.25;;;1.02;;
49139;SDS011;34959;49.310;8.646;2022-11-20T04:18:56;1.30;;;0.80;;
49139;SDS011;34959;49.310;8.646;2022-11-20T04:21:22;2.72;;;0.80;;
49139;SDS011;34959;49.310;8.646;2022-11-20T04:23:48;1.27;;;0.80;;
49139;SDS011;34959;49.310;8.646;2022-11-20T04:26:15;2.45;;;1.08;;
49139;SDS011;34959;49.310;8.646;2022-11-20T04:28:40;1.73;;;0.82;;
49139;SDS011;34959;49.310;8.646;2022-11-20T04:31:09;1.48;;;0.90;;
49139;SDS011;34959;49.310;8.646;2022-11-20T04:33:35;0.90;;;0.70;;
49139;SDS011;34959;49.310;8.646;2022-11-20T04:36:02;2.35;;;0.90;;
49139;SDS011;34959;49.310;8.646;2022-11-20T04:38:31;1.33;;;0.93;;
49139;SDS011;34959;49.310;8.646;2022-11-20T04:40:58;1.00;;;0.68;;
49139;SDS011;34959;49.310;8.646;2022-11-20T04:43:24;1.15;;;0.85;;
49139;SDS011;34959;49.310;8.646;2022-11-20T04:45:50;1.35;;;0.90;;
49139;SDS011;34959;49.310;8.646;2022-11-20T04:48:16;2.45;;;1.00;;
49139;SDS011;34959;49.310;8.646;2022-11-20T04:50:42;1.92;;;0.80;;
49139;SDS011;34959;49.310;8.646;2022-11-20T04:53:07;1.00;;;0.80;;
49139;SDS011;34959;49.310;8.646;2022-11-20T04:55:33;1.33;;;0.95;;
49139;SDS011;34959;49.310;8.646;2022-11-20T04:57:58;1.58;;;1.10;;
49139;SDS011;34959;49.310;8.646;2022-11-20T05:00:23;2.42;;;0.70;;
49139;SDS011;34959;49.310;8.646;2022-11-20T05:02:49;2.47;;;0.98;;
49139;SDS011;34959;49.310;8.646;2022-11-20T05:05:14;1.42;;;1.00;;
49139;SDS011;34959;49.310;8.646;2022-11-20T05:07:40;1.33;;;0.98;;
49139;SDS011;34959;49.310;8.646;2022-11-20T05:10:05;1.67;;;1.05;;
49139;SDS011;34959;49.310;8.646;2022-11-20T05:12:31;1.30;;;0.80;;
49139;SDS011;34959;49.310;8.646;2022-11-20T05:14:56;1.05;;;0.70;;
49139;SDS011;34959;49.310;8.646;2022-11-20T05:17:22;1.52;;;0.88;;
49139;SDS011;34959;49.310;8.646;2022-11-20T05:19:47;1.13;;;0.80;;
49139;SDS011;34959;49.310;8.646;2022-11-20T05:22:12;1.98;;;1.10;;
49139;SDS011;34959;49.310;8.646;2022-11-20T05:24:38;1.80;;;0.93;;
49139;SDS011;34959;49.310;8.646;2022-11-20T05:27:03;1.52;;;0.95;;
49139;SDS011;34959;49.310;8.646;2022-11-20T05:29:28;1.17;;;0.82;;
49139;SDS011;34959;49.310;8.646;2022-11-20T05:31:54;1.35;;;1.02;;
49139;SDS011;34959;49.310;8.646;2022-11-20T05:34:19;4.78;;;0.90;;
49139;SDS011;34959;49.310;8.646;2022-11-20T05:36:45;1.20;;;0.80;;
49139;SDS011;34959;49.310;8.646;2022-11-20T05:39:10;1.10;;;0.82;;
49139;SDS011;34959;49.310;8.646;2022-11-20T05:41:35;2.03;;;0.70;;
49139;SDS011;34959;49.310;8.646;2022-11-20T05:44:01;1.63;;;1.02;;
49139;SDS011;34959;49.310;8.646;2022-11-20T05:46:26;1.58;;;0.90;;
49139;SDS011;34959;49.310;8.646;2022-11-20T05:48:52;1.50;;;0.90;;
49139;SDS011;34959;49.310;8.646;2022-11-20T05:51:17;1.30;;;0.90;;
49139;SDS011;34959;49.310;8.646;2022-11-20T05:53:43;1.38;;;0.98;;
49139;SDS011;34959;49.310;8.646;2022-11-20T05:56:13;0.98;;;0.70;;
49139;SDS011;34959;49.310;8.646;2022-11-20T05:58:43;1.35;;;1.00;;
49139;SDS011;34959;49.310;8.646;2022-11-20T06:01:11;1.00;;;0.90;;
49139;SDS011;34959;49.310;8.646;2022-11-20T06:03:38;3.25;;;1.10;;
49139;SDS011;34959;49.310;8.646;2022-11-20T06:06:05;1.63;;;1.00;;
49139;SDS011;34959;49.310;8.646;2022-11-20T06:08:31;1.23;;;0.93;;
49139;SDS011;34959;49.310;8.646;2022-11-20T06:10:56;1.98;;;1.30;;
49139;SDS011;34959;49.310;8.646;2022-11-20T06:13:22;1.80;;;1.10;;
49139;SDS011;34959;49.310;8.646;2022-11-20T06:15:51;1.27;;;0.88;;
49139;SDS011;34959;49.310;8.646;2022-11-20T06:18:17;3.42;;;1.00;;
49139;SDS011;34959;49.310;8.646;2022-11-20T06:20:43;1.48;;;1.00;;
49139;SDS011;34959;49.310;8.646;2022-11-20T06:23:09;1.48;;;1.10;;
49139;SDS011;34959;49.310;8.646;2022-11-20T06:25:38;0.90;;;0.80;;
49139;SDS011;34959;49.310;8.646;2022-11-20T06:28:04;1.40;;;0.90;;
49139;SDS011;34959;49.310;8.646;2022-11-20T06:30:29;2.22;;;1.13;;
49139;SDS011;34959;49.310;8.646;2022-11-20T06:32:54;1.38;;;1.00;;
49139;SDS011;34959;49.310;8.646;2022-11-20T06:35:20;0.90;;;0.77;;
49139;SDS011;34959;49.310;8.646;2022-11-20T06:37:46;0.95;;;0.80;;
49139;SDS011;34959;49.310;8.646;2022-11-20T06:40:11;1.10;;;0.85;;
49139;SDS011;34959;49.310;8.646;2022-11-20T06:42:37;1.33;;;1.00;;
49139;SDS011;34959;49.310;8.646;2022-11-20T06:45:02;1.25;;;0.95;;
49139;SDS011;34959;49.310;8.646;2022-11-20T06:47:28;1.25;;;1.00;;
49139;SDS011;34959;49.310;8.646;2022-11-20T06:49:53;1.20;;;0.90;;
49139;SDS011;34959;49.310;8.646;2022-11-20T06:52:18;1.25;;;0.80;;
49139;SDS011;34959;49.310;8.646;2022-11-20T06:54:44;2.10;;;0.80;;
49139;SDS011;34959;49.310;8.646;2022-11-20T06:57:09;1.48;;;1.00;;
49139;SDS011;34959;49.310;8.646;2022-11-20T06:59:34;2.10;;;1.42;;
49139;SDS011;34959;49.310;8.646;2022-11-20T07:02:00;2.63;;;1.15;;
49139;SDS011;34959;49.310;8.646;2022-11-20T07:04:25;1.65;;;0.90;;
49139;SDS011;34959;49.310;8.646;2022-11-20T07:06:51;1.08;;;0.85;;
49139;SDS011;34959;49.310;8.646;2022-11-20T07:09:16;1.50;;;1.10;;
49139;SDS011;34959;49.310;8.646;2022-11-20T07:11:41;1.00;;;0.90;;
49139;SDS011;34959;49.310;8.646;2022-11-20T07:14:07;3.97;;;1.20;;
49139;SDS011;34959;49.310;8.646;2022-11-20T07:16:32;2.83;;;0.88;;
49139;SDS011;34959;49.310;8.646;2022-11-20T07:18:58;1.55;;;0.93;;
49139;SDS011;34959;49.310;8.646;2022-11-20T07:21:23;1.23;;;1.00;;
49139;SDS011;34959;49.310;8.646;2022-11-20T07:23:48;1.50;;;0.98;;
49139;SDS011;34959;49.310;8.646;2022-11-20T07:26:14;1.00;;;0.80;;
49139;SDS011;34959;49.310;8.646;2022-11-20T07:28:39;1.10;;;0.90;;
49139;SDS011;34959;49.310;8.646;2022-11-20T07:31:05;1.08;;;0.90;;
49139;SDS011;34959;49.310;8.646;2022-11-20T07:33:33;2.85;;;1.00;;
49139;SDS011;34959;49.310;8.646;2022-11-20T07:35:59;4.22;;;1.40;;
49139;SDS011;34959;49.310;8.646;2022-11-20T07:38:25;3.50;;;1.05;;
49139;SDS011;34959;49.310;8.646;2022-11-20T07:40:53;1.73;;;0.98;;
49139;SDS011;34959;49.310;8.646;2022-11-20T07:43:20;1.95;;;1.00;;
49139;SDS011;34959;49.310;8.646;2022-11-20T07:45:45;2.83;;;0.77;;
49139;SDS011;34959;49.310;8.646;2022-11-20T07:48:11;1.77;;;1.10;;
49139;SDS011;34959;49.310;8.646;2022-11-20T07:50:36;1.20;;;0.90;;
49139;SDS011;34959;49.310;8.646;2022-11-20T07:53:05;3.28;;;1.10;;
49139;SDS011;34959;49.310;8.646;2022-11-20T07:55:31;1.48;;;0.85;;
49139;SDS011;34959;49.310;8.646;2022-11-20T07:57:57;1.73;;;1.02;;
49139;SDS011;34959;49.310;8.646;2022-11-20T08:00:23;1.63;;;1.05;;
49139;SDS011;34959;49.310;8.646;2022-11-20T08:02:49;1.55;;;1.05;;
49139;SDS011;34959;49.310;8.646;2022-11-20T08:05:15;1.40;;;0.90;;
49139;SDS011;34959;49.310;8.646;2022-11-20T08:07:41;2.88;;;1.00;;
49139;SDS011;34959;49.310;8.646;2022-11-20T08:10:08;1.88;;;1.15;;
49139;SDS011;34959;49.310;8.646;2022-11-20T08:12:34;1.80;;;0.90;;
49139;SDS011;34959;49.310;8.646;2022-11-20T08:15:18;1.63;;;0.90;;
49139;SDS011;34959;49.310;8.646;2022-11-20T08:17:43;2.33;;;1.30;;
49139;SDS011;34959;49.310;8.646;2022-11-20T08:20:09;2.65;;;1.00;;
49139;SDS011;34959;49.310;8.646;2022-11-20T08:22:35;3.78;;;1.00;;
49139;SDS011;34959;49.310;8.646;2022-11-20T08:25:00;1.10;;;0.90;;
49139;SDS011;34959;49.310;8.646;2022-11-20T08:27:25;1.42;;;1.10;;
49139;SDS011;34959;49.310;8.646;2022-11-20T08:29:51;2.80;;;1.10;;
49139;SDS011;34959;49.310;8.646;2022-11-20T08:32:16;0.98;;;0.70;;
49139;SDS011;34959;49.310;8.646;2022-11-20T08:34:42;2.45;;;0.80;;
49139;SDS011;34959;49.310;8.646;2022-11-20T08:37:07;2.17;;;1.02;;
49139;SDS011;34959;49.310;8.646;2022-11-20T08:39:32;2.85;;;1.00;;
49139;SDS011;34959;49.310;8.646;2022-11-20T08:41:58;1.13;;;0.80;;
49139;SDS011;34959;49.310;8.646;2022-11-20T08:44:24;2.95;;;1.05;;
49139;SDS011;34959;49.310;8.646;2022-11-20T08:46:49;1.20;;;0.90;;
49139;SDS011;34959;49.310;8.646;2022-11-20T08:49:14;1.30;;;0.82;;
49139;SDS011;34959;49.310;8.646;2022-11-20T08:51:40;0.88;;;0.70;;
49139;SDS011;34959;49.310;8.646;2022-11-20T08:54:06;2.70;;;0.98;;
49139;SDS011;34959;49.310;8.646;2022-11-20T08:56:32;1.30;;;0.77;;
49139;SDS011;34959;49.310;8.646;2022-11-20T08:58:58;2.55;;;0.90;;
49139;SDS011;34959;49.310;8.646;2022-11-20T09:01:26;3.13;;;1.00;;
49139;SDS011;34959;49.310;8.646;2022-11-20T09:03:52;3.53;;;1.00;;
49139;SDS011;34959;49.310;8.646;2022-11-20T09:06:17;1.23;;;0.70;;
49139;SDS011;34959;49.310;8.646;2022-11-20T09:08:43;2.40;;;0.90;;
49139;SDS011;34959;49.310;8.646;2022-11-20T09:11:09;1.20;;;0.88;;
49139;SDS011;34959;49.310;8.646;2022-11-20T09:13:35;2.15;;;0.90;;
49139;SDS011;34959;49.310;8.646;2022-11-20T09:16:05;2.47;;;1.08;;
49139;SDS011;34959;49.310;8.646;2022-11-20T09:18:33;3.23;;;0.90;;
49139;SDS011;34959;49.310;8.646;2022-11-20T09:21:01;2.50;;;0.90;;
49139;SDS011;34959;49.310;8.646;2022-11-20T09:23:30;1.42;;;1.00;;
49139;SDS011;34959;49.310;8.646;2022-11-20T09:25:57;1.45;;;0.70;;
49139;SDS011;34959;49.310;8.646;2022-11-20T09:28:25;1.83;;;0.98;;
49139;SDS011;34959;49.310;8.646;2022-11-20T09:30:50;1.30;;;0.70;;
49139;SDS011;34959;49.310;8.646;2022-11-20T09:33:16;1.88;;;0.93;;
49139;SDS011;34959;49.310;8.646;2022-11-20T09:35:42;1.63;;;1.00;;
49139;SDS011;34959;49.310;8.646;2022-11-20T09:38:09;1.75;;;1.08;;
49139;SDS011;34959;49.310;8.646;2022-11-20T09:40:37;2.65;;;1.10;;
49139;SDS011;34959;49.310;8.646;2022-11-20T09:43:16;1.73;;;1.00;;
49139;SDS011;34959;49.310;8.646;2022-11-20T09:56:37;1.70;;;1.00;;
49139;SDS011;34959;49.310;8.646;2022-11-20T09:59:05;1.90;;;0.80;;
49139;SDS011;34959;49.310;8.646;2022-11-20T10:01:32;2.63;;;0.95;;
49139;SDS011;34959;49.310;8.646;2022-11-20T10:04:08;4.18;;;0.82;;
49139;SDS011;34959;49.310;8.646;2022-11-20T10:09:42;1.70;;;1.02;;
49139;SDS011;34959;49.310;8.646;2022-11-20T10:30:43;6.37;;;2.20;;
49139;SDS011;34959;49.310;8.646;2022-11-20T10:33:16;3.85;;;2.10;;
49139;SDS011;34959;49.310;8.646;2022-11-20T10:35:45;5.38;;;2.10;;
49139;SDS011;34959;49.310;8.646;2022-11-20T10:38:20;4.22;;;1.85;;
49139;SDS011;34959;49.310;8.646;2022-11-20T10:40:50;2.55;;;1.65;;
49139;SDS011;34959;49.310;8.646;2022-11-20T10:43:24;2.80;;;1.70;;
49139;SDS011;34959;49.310;8.646;2022-11-20T10:46:00;2.25;;;1.58;;
49139;SDS011;34959;49.310;8.646;2022-11-20T10:48:28;4.32;;;1.80;;
49139;SDS011;34959;49.310;8.646;2022-11-20T10:56:07;5.05;;;1.80;;
49139;SDS011;34959;49.310;8.646;2022-11-20T10:59:02;2.55;;;1.60;;
49139;SDS011;34959;49.310;8.646;2022-11-20T11:01:28;3.30;;;1.55;;
49139;SDS011;34959;49.310;8.646;2022-11-20T11:03:55;4.47;;;1.80;;
49139;SDS011;34959;49.310;8.646;2022-11-20T11:06:37;3.28;;;1.52;;
49139;SDS011;34959;49.310;8.646;2022-11-20T11:09:22;2.25;;;1.45;;
49139;SDS011;34959;49.310;8.646;2022-11-20T11:11:55;2.58;;;1.48;;
49139;SDS011;34959;49.310;8.646;2022-11-20T11:14:20;3.20;;;1.95;;
49139;SDS011;34959;49.310;8.646;2022-11-20T11:16:50;3.80;;;1.73;;
49139;SDS011;34959;49.310;8.646;2022-11-20T11:19:16;2.45;;;1.55;;
49139;SDS011;34959;49.310;8.646;2022-11-20T11:21:49;2.13;;;1.60;;
49139;SDS011;34959;49.310;8.646;2022-11-20T11:26:58;4.85;;;1.40;;
49139;SDS011;34959;49.310;8.646;2022-11-20T11:29:29;4.30;;;1.90;;
49139;SDS011;34959;49.310;8.646;2022-11-20T11:34:30;2.65;;;1.80;;
49139;SDS011;34959;49.310;8.646;2022-11-20T11:36:58;3.40;;;1.90;;
49139;SDS011;34959;49.310;8.646;2022-11-20T11:39:25;2.85;;;1.65;;
49139;SDS011;34959;49.310;8.646;2022-11-20T11:41:50;3.55;;;2.22;;
49139;SDS011;34959;49.310;8.646;2022-11-20T11:44:24;4.82;;;1.83;;
49139;SDS011;34959;49.310;8.646;2022-11-20T11:47:23;3.75;;;1.80;;
49139;SDS011;34959;49.310;8.646;2022-11-20T11:52:36;2.55;;;1.60;;
49139;SDS011;34959;49.310;8.646;2022-11-20T11:55:26;5.47;;;1.85;;
49139;SDS011;34959;49.310;8.646;2022-11-20T12:01:08;3.20;;;1.70;;
49139;SDS011;34959;49.310;8.646;2022-11-20T12:03:50;3.95;;;1.85;;
49139;SDS011;34959;49.310;8.646;2022-11-20T12:06:20;2.92;;;1.60;;
49139;SDS011;34959;49.310;8.646;2022-11-20T12:11:18;1.80;;;1.40;;
49139;SDS011;34959;49.310;8.646;2022-11-20T12:13:54;2.20;;;1.48;;
49139;SDS011;34959;49.310;8.646;2022-11-20T12:16:23;2.72;;;1.48;;
49139;SDS011;34959;49.310;8.646;2022-11-20T12:18:50;2.95;;;1.40;;
49139;SDS011;34959;49.310;8.646;2022-11-20T12:27:02;2.67;;;1.60;;
49139;SDS011;34959;49.310;8.646;2022-11-20T12:37:23;5.05;;;1.42;;
49139;SDS011;34959;49.310;8.646;2022-11-20T12:39:54;2.13;;;1.50;;
49139;SDS011;34959;49.310;8.646;2022-11-20T13:06:46;2.58;;;1.50;;
49139;SDS011;34959;49.310;8.646;2022-11-20T13:09:15;1.75;;;1.10;;
49139;SDS011;34959;49.310;8.646;2022-11-20T13:17:11;1.90;;;1.08;;
49139;SDS011;34959;49.310;8.646;2022-11-20T13:19:40;2.13;;;1.20;;
49139;SDS011;34959;49.310;8.646;2022-11-20T13:22:07;1.80;;;1.23;;
49139;SDS011;34959;49.310;8.646;2022-11-20T13:24:33;1.85;;;1.10;;
49139;SDS011;34959;49.310;8.646;2022-11-20T13:27:21;3.25;;;1.20;;
49139;SDS011;34959;49.310;8.646;2022-11-20T13:35:23;2.38;;;1.52;;
49139;SDS011;34959;49.310;8.646;2022-11-20T13:37:59;2.50;;;1.10;;
49139;SDS011;34959;49.310;8.646;2022-11-20T13:40:25;1.42;;;1.17;;
49139;SDS011;34959;49.310;8.646;2022-11-20T13:42:55;2.40;;;1.27;;
49139;SDS011;34959;49.310;8.646;2022-11-20T13:45:28;2.95;;;1.42;;
49139;SDS011;34959;49.310;8.646;2022-11-20T13:47:55;1.80;;;1.10;;
49139;SDS011;34959;49.310;8.646;2022-11-20T13:50:28;2.13;;;1.10;;
49139;SDS011;34959;49.310;8.646;2022-11-20T14:01:25;3.42;;;1.00;;
49139;SDS011;34959;49.310;8.646;2022-11-20T14:03:53;3.08;;;1.10;;
49139;SDS011;34959;49.310;8.646;2022-11-20T14:08:54;4.85;;;1.05;;
49139;SDS011;34959;49.310;8.646;2022-11-20T14:11:27;1.88;;;1.10;;
49139;SDS011;34959;49.310;8.646;2022-11-20T14:17:07;4.35;;;1.40;;
49139;SDS011;34959;49.310;8.646;2022-11-20T14:19:34;2.90;;;1.25;;
49139;SDS011;34959;49.310;8.646;2022-11-20T14:24:31;4.13;;;1.20;;
49139;SDS011;34959;49.310;8.646;2022-11-20T14:26:56;2.38;;;1.00;;
49139;SDS011;34959;49.310;8.646;2022-11-20T14:29:23;3.38;;;1.25;;
49139;SDS011;34959;49.310;8.646;2022-11-20T14:31:53;4.28;;;1.35;;
49139;SDS011;34959;49.310;8.646;2022-11-20T14:34:27;3.35;;;0.90;;
49139;SDS011;34959;49.310;8.646;2022-11-20T14:37:04;1.77;;;1.10;;
49139;SDS011;34959;49.310;8.646;2022-11-20T14:39:32;4.05;;;1.17;;
49139;SDS011;34959;49.310;8.646;2022-11-20T14:42:02;1.70;;;0.90;;
49139;SDS011;34959;49.310;8.646;2022-11-20T14:44:32;1.70;;;1.00;;
49139;SDS011;34959;49.310;8.646;2022-11-20T14:47:00;2.55;;;1.00;;
49139;SDS011;34959;49.310;8.646;2022-11-20T14:49:26;2.17;;;1.23;;
49139;SDS011;34959;49.310;8.646;2022-11-20T14:54:58;3.22;;;1.13;;
49139;SDS011;34959;49.310;8.646;2022-11-20T14:57:27;2.83;;;1.10;;
49139;SDS011;34959;49.310;8.646;2022-11-20T15:00:03;3.47;;;1.10;;
49139;SDS011;34959;49.310;8.646;2022-11-20T15:02:32;2.88;;;1.10;;
49139;SDS011;34959;49.310;8.646;2022-11-20T15:04:59;4.10;;;1.08;;
49139;SDS011;34959;49.310;8.646;2022-11-20T15:07:28;2.50;;;1.05;;
49139;SDS011;34959;49.310;8.646;2022-11-20T15:10:01;3.10;;;1.00;;
49139;SDS011;34959;49.310;8.646;2022-11-20T15:12:31;3.20;;;1.20;;
49139;SDS011;34959;49.310;8.646;2022-11-20T15:14:58;1.45;;;0.75;;
49139;SDS011;34959;49.310;8.646;2022-11-20T15:17:23;1.98;;;1.00;;
49139;SDS011;34959;49.310;8.646;2022-11-20T15:19:49;1.95;;;1.20;;
49139;SDS011;34959;49.310;8.646;2022-11-20T15:22:15;2.90;;;1.00;;
49139;SDS011;34959;49.310;8.646;2022-11-20T15:24:43;1.98;;;1.10;;
49139;SDS011;34959;49.310;8.646;2022-11-20T15:27:09;2.95;;;0.90;;
49139;SDS011;34959;49.310;8.646;2022-11-20T15:29:35;3.13;;;1.33;;
49139;SDS011;34959;49.310;8.646;2022-11-20T15:32:01;1.98;;;1.00;;
49139;SDS011;34959;49.310;8.646;2022-11-20T15:34:26;1.65;;;0.75;;
49139;SDS011;34959;49.310;8.646;2022-11-20T15:36:52;2.20;;;1.20;;
49139;SDS011;34959;49.310;8.646;2022-11-20T15:39:19;2.70;;;0.90;;
49139;SDS011;34959;49.310;8.646;2022-11-20T15:41:45;3.63;;;1.27;;
49139;SDS011;34959;49.310;8.646;2022-11-20T15:44:10;3.63;;;0.95;;
49139;SDS011;34959;49.310;8.646;2022-11-20T15:46:37;2.17;;;1.20;;
49139;SDS011;34959;49.310;8.646;2022-11-20T15:49:14;2.15;;;0.90;;
49139;SDS011;34959;49.310;8.646;2022-11-20T15:51:41;1.20;;;0.70;;
49139;SDS011;34959;49.310;8.646;2022-11-20T15:54:10;3.13;;;0.98;;
49139;SDS011;34959;49.310;8.646;2022-11-20T15:56:40;1.05;;;0.80;;
49139;SDS011;34959;49.310;8.646;2022-11-20T15:59:06;3.45;;;1.20;;
49139;SDS011;34959;49.310;8.646;2022-11-20T16:01:31;1.95;;;1.00;;
49139;SDS011;34959;49.310;8.646;2022-11-20T16:03:57;1.75;;;0.90;;
49139;SDS011;34959;49.310;8.646;2022-11-20T16:06:22;3.25;;;1.17;;
49139;SDS011;34959;49.310;8.646;2022-11-20T16:08:48;1.70;;;0.90;;
49139;SDS011;34959;49.310;8.646;2022-11-20T16:11:14;1.40;;;0.77;;
49139;SDS011;34959;49.310;8.646;2022-11-20T16:13:40;3.17;;;0.90;;
49139;SDS011;34959;49.310;8.646;2022-11-20T16:16:25;2.95;;;1.00;;
49139;SDS011;34959;49.310;8.646;2022-11-20T16:18:55;1.48;;;0.90;;
49139;SDS011;34959;49.310;8.646;2022-11-20T16:21:20;2.80;;;1.00;;
49139;SDS011;34959;49.310;8.646;2022-11-20T16:23:52;1.83;;;1.10;;
49139;SDS011;34959;49.310;8.646;2022-11-20T16:26:17;3.58;;;0.98;;
49139;SDS011;34959;49.310;8.646;2022-11-20T16:28:43;1.50;;;0.90;;
49139;SDS011;34959;49.310;8.646;2022-11-20T16:31:13;1.85;;;0.85;;
49139;SDS011;34959;49.310;8.646;2022-11-20T16:33:39;1.73;;;1.10;;
49139;SDS011;34959;49.310;8.646;2022-11-20T16:36:12;1.55;;;0.88;;
49139;SDS011;34959;49.310;8.646;2022-11-20T16:38:39;1.38;;;1.02;;
49139;SDS011;34959;49.310;8.646;2022-11-20T16:41:05;2.00;;;1.20;;
49139;SDS011;34959;49.310;8.646;2022-11-20T16:43:30;3.80;;;1.10;;
49139;SDS011;34959;49.310;8.646;2022-11-20T16:45:56;1.90;;;1.20;;
49139;SDS011;34959;49.310;8.646;2022-11-20T16:48:21;1.48;;;0.80;;
49139;SDS011;34959;49.310;8.646;2022-11-20T16:50:48;2.03;;;0.98;;
49139;SDS011;34959;49.310;8.646;2022-11-20T16:53:16;2.25;;;1.00;;
49139;SDS011;34959;49.310;8.646;2022-11-20T16:55:42;1.38;;;0.90;;
49139;SDS011;34959;49.310;8.646;2022-11-20T16:58:08;1.70;;;1.00;;
49139;SDS011;34959;49.310;8.646;2022-11-20T17:00:36;1.88;;;1.00;;